sensor_id;sensor_type;location;lat;lon;timestamp;P1;P2;P0
55459;PMS5003;41326;45.302;-122.946;2022-11-15T00:01:17;0;0;
55459;PMS5003;41326;45.302;-122.946;2022-11-15T00:03:50;1;1;
55459;PMS5003;41326;45.302;-122.946;2022-11-15T00:06:17;1;1;
55459;PMS5003;41326;45.302;-122.946;2022-11-15T00:08:48;2;2;
55459;PMS5003;41326;45.302;-122.946;2022-11-15T00:11:18;1;1;
55459;PMS5003;41326;45.302;-122.946;2022-11-15T00:13:48;1;1;
55459;PMS5003;41326;45.302;-122.946;2022-11-15T00:16:18;0;0;
55459;PMS5003;41326;45.302;-122.946;2022-11-15T00:18:49;1;1;
55459;PMS5003;41326;45.302;-122.946;2022-11-15T00:21:20;3;1;
55459;PMS5003;41326;45.302;-122.946;2022-11-15T00:23:49;4;2;
55459;PMS5003;41326;45.302;-122.946;2022-11-15T00:26:19;1;1;
55459;PMS5003;41326;45.302;-122.946;2022-11-15T00:28:51;1;1;
55459;PMS5003;41326;45.302;-122.946;2022-11-15T00:31:20;2;1;
55459;PMS5003;41326;45.302;-122.946;2022-11-15T00:33:51;0;0;
55459;PMS5003;41326;45.302;-122.946;2022-11-15T00:36:22;2;2;
55459;PMS5003;41326;45.302;-122.946;2022-11-15T00:38:52;1;1;
55459;PMS5003;41326;45.302;-122.946;2022-11-15T00:42:29;1;1;
55459;PMS5003;41326;45.302;-122.946;2022-11-15T00:44:59;1;1;
55459;PMS5003;41326;45.302;-122.946;2022-11-15T00:47:29;1;1;
55459;PMS5003;41326;45.302;-122.946;2022-11-15T00:49:59;1;1;
55459;PMS5003;41326;45.302;-122.946;2022-11-15T00:52:30;0;0;
55459;PMS5003;41326;45.302;-122.946;2022-11-15T00:55:00;1;1;
55459;PMS5003;41326;45.302;-122.946;2022-11-15T00:57:30;3;1;
55459;PMS5003;41326;45.302;-122.946;2022-11-15T01:00:01;2;2;
55459;PMS5003;41326;45.302;-122.946;2022-11-15T01:02:31;2;1;
55459;PMS5003;41326;45.302;-122.946;2022-11-15T01:05:01;1;1;
55459;PMS5003;41326;45.302;-122.946;2022-11-15T01:07:31;1;0;
55459;PMS5003;41326;45.302;-122.946;2022-11-15T01:10:02;2;2;
55459;PMS5003;41326;45.302;-122.946;2022-11-15T01:12:32;2;1;
55459;PMS5003;41326;45.302;-122.946;2022-11-15T01:15:03;1;1;
55459;PMS5003;41326;45.302;-122.946;2022-11-15T01:17:33;2;2;
55459;PMS5003;41326;45.302;-122.946;2022-11-15T01:20:04;2;2;
55459;PMS5003;41326;45.302;-122.946;2022-11-15T01:22:35;1;1;
55459;PMS5003;41326;45.302;-122.946;2022-11-15T01:25:04;3;2;
55459;PMS5003;41326;45.302;-122.946;2022-11-15T01:27:35;5;2;
55459;PMS5003;41326;45.302;-122.946;2022-11-15T01:30:06;2;2;
55459;PMS5003;41326;45.302;-122.946;2022-11-15T01:32:36;2;1;
55459;PMS5003;41326;45.302;-122.946;2022-11-15T01:35:07;2;2;
55459;PMS5003;41326;45.302;-122.946;2022-11-15T01:37:37;2;1;
55459;PMS5003;41326;45.302;-122.946;2022-11-15T01:40:08;1;1;
55459;PMS5003;41326;45.302;-122.946;2022-11-15T01:42:38;3;2;
55459;PMS5003;41326;45.302;-122.946;2022-11-15T01:45:10;2;2;
55459;PMS5003;41326;45.302;-122.946;2022-11-15T01:47:39;2;2;
55459;PMS5003;41326;45.302;-122.946;2022-11-15T01:50:10;2;1;
55459;PMS5003;41326;45.302;-122.946;2022-11-15T01:52:40;1;1;
55459;PMS5003;41326;45.302;-122.946;2022-11-15T01:55:11;1;1;
55459;PMS5003;41326;45.302;-122.946;2022-11-15T01:57:41;3;2;
55459;PMS5003;41326;45.302;-122.946;2022-11-15T02:00:12;1;1;
55459;PMS5003;41326;45.302;-122.946;2022-11-15T02:02:42;3;1;
55459;PMS5003;41326;45.302;-122.946;2022-11-15T02:05:12;0;0;
55459;PMS5003;41326;45.302;-122.946;2022-11-15T02:07:43;1;1;
55459;PMS5003;41326;45.302;-122.946;2022-11-15T02:10:14;2;0;
55459;PMS5003;41326;45.302;-122.946;2022-11-15T02:12:43;2;1;
55459;PMS5003;41326;45.302;-122.946;2022-11-15T02:15:14;2;1;
55459;PMS5003;41326;45.302;-122.946;2022-11-15T02:17:48;1;1;
55459;PMS5003;41326;45.302;-122.946;2022-11-15T02:22:48;1;0;
55459;PMS5003;41326;45.302;-122.946;2022-11-15T02:30:19;1;1;
55459;PMS5003;41326;45.302;-122.946;2022-11-15T02:32:47;1;1;
55459;PMS5003;41326;45.302;-122.946;2022-11-15T02:35:18;3;2;
55459;PMS5003;41326;45.302;-122.946;2022-11-15T02:37:47;2;1;
55459;PMS5003;41326;45.302;-122.946;2022-11-15T02:40:18;1;1;
55459;PMS5003;41326;45.302;-122.946;2022-11-15T02:42:49;3;1;
55459;PMS5003;41326;45.302;-122.946;2022-11-15T02:45:19;0;0;
55459;PMS5003;41326;45.302;-122.946;2022-11-15T02:47:48;1;0;
55459;PMS5003;41326;45.302;-122.946;2022-11-15T02:50:20;2;1;
55459;PMS5003;41326;45.302;-122.946;2022-11-15T02:52:49;1;1;
55459;PMS5003;41326;45.302;-122.946;2022-11-15T02:57:51;0;0;
55459;PMS5003;41326;45.302;-122.946;2022-11-15T03:00:20;2;1;
55459;PMS5003;41326;45.302;-122.946;2022-11-15T03:02:56;1;1;
55459;PMS5003;41326;45.302;-122.946;2022-11-15T03:05:22;2;2;
55459;PMS5003;41326;45.302;-122.946;2022-11-15T03:07:52;2;2;
55459;PMS5003;41326;45.302;-122.946;2022-11-15T03:10:22;2;1;
55459;PMS5003;41326;45.302;-122.946;2022-11-15T03:12:54;0;0;
55459;PMS5003;41326;45.302;-122.946;2022-11-15T03:15:23;1;1;
55459;PMS5003;41326;45.302;-122.946;2022-11-15T03:17:53;2;2;
55459;PMS5003;41326;45.302;-122.946;2022-11-15T03:20:22;2;1;
55459;PMS5003;41326;45.302;-122.946;2022-11-15T03:22:54;1;0;
55459;PMS5003;41326;45.302;-122.946;2022-11-15T03:25:24;0;0;
55459;PMS5003;41326;45.302;-122.946;2022-11-15T03:27:55;0;0;
55459;PMS5003;41326;45.302;-122.946;2022-11-15T03:30:25;0;0;
55459;PMS5003;41326;45.302;-122.946;2022-11-15T03:32:55;0;0;
55459;PMS5003;41326;45.302;-122.946;2022-11-15T03:35:26;0;0;
55459;PMS5003;41326;45.302;-122.946;2022-11-15T03:37:57;1;1;
55459;PMS5003;41326;45.302;-122.946;2022-11-15T03:40:29;0;0;
55459;PMS5003;41326;45.302;-122.946;2022-11-15T03:42:59;0;0;
55459;PMS5003;41326;45.302;-122.946;2022-11-15T03:45:28;0;0;
55459;PMS5003;41326;45.302;-122.946;2022-11-15T03:47:59;0;0;
55459;PMS5003;41326;45.302;-122.946;2022-11-15T03:50:28;0;0;
55459;PMS5003;41326;45.302;-122.946;2022-11-15T03:52:58;0;0;
55459;PMS5003;41326;45.302;-122.946;2022-11-15T03:55:29;0;0;
55459;PMS5003;41326;45.302;-122.946;2022-11-15T03:57:59;0;0;
55459;PMS5003;41326;45.302;-122.946;2022-11-15T04:00:29;0;0;
55459;PMS5003;41326;45.302;-122.946;2022-11-15T04:02:59;0;0;
55459;PMS5003;41326;45.302;-122.946;2022-11-15T04:05:30;0;0;
55459;PMS5003;41326;45.302;-122.946;2022-11-15T04:08:00;0;0;
55459;PMS5003;41326;45.302;-122.946;2022-11-15T04:10:30;1;1;
55459;PMS5003;41326;45.302;-122.946;2022-11-15T04:13:01;1;1;
55459;PMS5003;41326;45.302;-122.946;2022-11-15T04:15:31;0;0;
55459;PMS5003;41326;45.302;-122.946;2022-11-15T04:18:02;1;0;
55459;PMS5003;41326;45.302;-122.946;2022-11-15T04:20:32;0;0;
55459;PMS5003;41326;45.302;-122.946;2022-11-15T04:23:04;0;0;
55459;PMS5003;41326;45.302;-122.946;2022-11-15T04:25:33;1;0;
55459;PMS5003;41326;45.302;-122.946;2022-11-15T04:28:04;0;0;
55459;PMS5003;41326;45.302;-122.946;2022-11-15T04:30:34;0;0;
55459;PMS5003;41326;45.302;-122.946;2022-11-15T04:33:04;1;1;
55459;PMS5003;41326;45.302;-122.946;2022-11-15T04:35:34;0;0;
55459;PMS5003;41326;45.302;-122.946;2022-11-15T04:38:05;0;0;
55459;PMS5003;41326;45.302;-122.946;2022-11-15T04:40:35;0;0;
55459;PMS5003;41326;45.302;-122.946;2022-11-15T04:43:05;2;0;
55459;PMS5003;41326;45.302;-122.946;2022-11-15T04:45:35;0;0;
55459;PMS5003;41326;45.302;-122.946;2022-11-15T04:48:05;0;0;
55459;PMS5003;41326;45.302;-122.946;2022-11-15T04:50:36;0;0;
55459;PMS5003;41326;45.302;-122.946;2022-11-15T04:53:06;0;0;
55459;PMS5003;41326;45.302;-122.946;2022-11-15T04:55:37;0;0;
55459;PMS5003;41326;45.302;-122.946;2022-11-15T04:58:09;0;0;
55459;PMS5003;41326;45.302;-122.946;2022-11-15T05:00:37;0;0;
55459;PMS5003;41326;45.302;-122.946;2022-11-15T05:03:09;0;0;
55459;PMS5003;41326;45.302;-122.946;2022-11-15T05:05:38;0;0;
55459;PMS5003;41326;45.302;-122.946;2022-11-15T05:08:09;1;0;
55459;PMS5003;41326;45.302;-122.946;2022-11-15T05:10:39;6;5;
55459;PMS5003;41326;45.302;-122.946;2022-11-15T05:13:09;17;13;
55459;PMS5003;41326;45.302;-122.946;2022-11-15T05:15:39;10;7;
55459;PMS5003;41326;45.302;-122.946;2022-11-15T05:18:10;12;9;
55459;PMS5003;41326;45.302;-122.946;2022-11-15T05:20:40;9;6;
55459;PMS5003;41326;45.302;-122.946;2022-11-15T05:23:10;9;6;
55459;PMS5003;41326;45.302;-122.946;2022-11-15T05:25:41;11;9;
55459;PMS5003;41326;45.302;-122.946;2022-11-15T05:28:11;6;5;
55459;PMS5003;41326;45.302;-122.946;2022-11-15T05:30:41;11;9;
55459;PMS5003;41326;45.302;-122.946;2022-11-15T05:33:11;7;7;
55459;PMS5003;41326;45.302;-122.946;2022-11-15T05:35:42;8;6;
55459;PMS5003;41326;45.302;-122.946;2022-11-15T05:38:12;6;6;
55459;PMS5003;41326;45.302;-122.946;2022-11-15T05:40:42;4;3;
55459;PMS5003;41326;45.302;-122.946;2022-11-15T05:43:13;4;4;
55459;PMS5003;41326;45.302;-122.946;2022-11-15T05:45:43;6;3;
55459;PMS5003;41326;45.302;-122.946;2022-11-15T05:48:13;6;5;
55459;PMS5003;41326;45.302;-122.946;2022-11-15T05:50:43;5;3;
55459;PMS5003;41326;45.302;-122.946;2022-11-15T05:53:14;4;4;
55459;PMS5003;41326;45.302;-122.946;2022-11-15T05:55:44;2;2;
55459;PMS5003;41326;45.302;-122.946;2022-11-15T05:58:14;3;3;
55459;PMS5003;41326;45.302;-122.946;2022-11-15T06:00:44;4;3;
55459;PMS5003;41326;45.302;-122.946;2022-11-15T06:03:14;2;2;
55459;PMS5003;41326;45.302;-122.946;2022-11-15T06:05:45;3;3;
55459;PMS5003;41326;45.302;-122.946;2022-11-15T06:08:15;5;4;
55459;PMS5003;41326;45.302;-122.946;2022-11-15T06:10:46;4;3;
55459;PMS5003;41326;45.302;-122.946;2022-11-15T06:13:16;8;4;
55459;PMS5003;41326;45.302;-122.946;2022-11-15T06:15:46;5;3;
55459;PMS5003;41326;45.302;-122.946;2022-11-15T06:18:17;1;1;
55459;PMS5003;41326;45.302;-122.946;2022-11-15T06:20:47;1;0;
55459;PMS5003;41326;45.302;-122.946;2022-11-15T06:23:17;1;0;
55459;PMS5003;41326;45.302;-122.946;2022-11-15T06:25:48;2;2;
55459;PMS5003;41326;45.302;-122.946;2022-11-15T06:28:18;2;2;
55459;PMS5003;41326;45.302;-122.946;2022-11-15T06:30:48;1;1;
55459;PMS5003;41326;45.302;-122.946;2022-11-15T06:33:18;3;1;
55459;PMS5003;41326;45.302;-122.946;2022-11-15T06:35:49;1;1;
55459;PMS5003;41326;45.302;-122.946;2022-11-15T06:38:19;0;0;
55459;PMS5003;41326;45.302;-122.946;2022-11-15T06:40:49;3;1;
55459;PMS5003;41326;45.302;-122.946;2022-11-15T06:43:20;1;1;
55459;PMS5003;41326;45.302;-122.946;2022-11-15T06:45:50;1;1;
55459;PMS5003;41326;45.302;-122.946;2022-11-15T06:48:20;3;2;
55459;PMS5003;41326;45.302;-122.946;2022-11-15T06:50:51;2;2;
55459;PMS5003;41326;45.302;-122.946;2022-11-15T06:53:21;1;1;
55459;PMS5003;41326;45.302;-122.946;2022-11-15T06:55:51;1;1;
55459;PMS5003;41326;45.302;-122.946;2022-11-15T06:58:22;1;1;
55459;PMS5003;41326;45.302;-122.946;2022-11-15T07:00:52;1;1;
55459;PMS5003;41326;45.302;-122.946;2022-11-15T07:03:22;1;1;
55459;PMS5003;41326;45.302;-122.946;2022-11-15T07:05:53;3;1;
55459;PMS5003;41326;45.302;-122.946;2022-11-15T07:08:24;0;0;
55459;PMS5003;41326;45.302;-122.946;2022-11-15T07:10:54;2;2;
55459;PMS5003;41326;45.302;-122.946;2022-11-15T07:13:24;3;2;
55459;PMS5003;41326;45.302;-122.946;2022-11-15T07:15:55;1;1;
55459;PMS5003;41326;45.302;-122.946;2022-11-15T07:18:25;0;0;
55459;PMS5003;41326;45.302;-122.946;2022-11-15T07:20:55;1;1;
55459;PMS5003;41326;45.302;-122.946;2022-11-15T07:23:25;0;0;
55459;PMS5003;41326;45.302;-122.946;2022-11-15T07:25:56;2;0;
55459;PMS5003;41326;45.302;-122.946;2022-11-15T07:28:26;1;1;
55459;PMS5003;41326;45.302;-122.946;2022-11-15T07:30:56;1;1;
55459;PMS5003;41326;45.302;-122.946;2022-11-15T07:33:27;0;0;
55459;PMS5003;41326;45.302;-122.946;2022-11-15T07:35:58;1;1;
55459;PMS5003;41326;45.302;-122.946;2022-11-15T07:38:27;2;0;
55459;PMS5003;41326;45.302;-122.946;2022-11-15T07:40:58;0;0;
55459;PMS5003;41326;45.302;-122.946;2022-11-15T07:43:28;2;1;
55459;PMS5003;41326;45.302;-122.946;2022-11-15T07:45:58;2;2;
55459;PMS5003;41326;45.302;-122.946;2022-11-15T07:48:28;2;1;
55459;PMS5003;41326;45.302;-122.946;2022-11-15T07:50:58;3;2;
55459;PMS5003;41326;45.302;-122.946;2022-11-15T07:53:29;2;2;
55459;PMS5003;41326;45.302;-122.946;2022-11-15T07:55:59;1;1;
55459;PMS5003;41326;45.302;-122.946;2022-11-15T07:58:29;1;1;
55459;PMS5003;41326;45.302;-122.946;2022-11-15T08:01:02;4;1;
55459;PMS5003;41326;45.302;-122.946;2022-11-15T08:03:30;3;1;
55459;PMS5003;41326;45.302;-122.946;2022-11-15T08:06:00;0;0;
55459;PMS5003;41326;45.302;-122.946;2022-11-15T08:08:31;1;0;
55459;PMS5003;41326;45.302;-122.946;2022-11-15T08:11:01;4;3;
55459;PMS5003;41326;45.302;-122.946;2022-11-15T08:13:31;2;2;
55459;PMS5003;41326;45.302;-122.946;2022-11-15T08:16:02;2;2;
55459;PMS5003;41326;45.302;-122.946;2022-11-15T08:18:32;3;2;
55459;PMS5003;41326;45.302;-122.946;2022-11-15T08:21:03;2;2;
55459;PMS5003;41326;45.302;-122.946;2022-11-15T08:23:33;2;2;
55459;PMS5003;41326;45.302;-122.946;2022-11-15T08:26:04;3;3;
55459;PMS5003;41326;45.302;-122.946;2022-11-15T08:28:34;2;2;
55459;PMS5003;41326;45.302;-122.946;2022-11-15T08:31:04;4;3;
55459;PMS5003;41326;45.302;-122.946;2022-11-15T08:33:35;4;4;
55459;PMS5003;41326;45.302;-122.946;2022-11-15T08:36:05;2;2;
55459;PMS5003;41326;45.302;-122.946;2022-11-15T08:38:35;3;2;
55459;PMS5003;41326;45.302;-122.946;2022-11-15T08:41:05;4;3;
55459;PMS5003;41326;45.302;-122.946;2022-11-15T08:43:35;3;2;
55459;PMS5003;41326;45.302;-122.946;2022-11-15T08:46:05;4;4;
55459;PMS5003;41326;45.302;-122.946;2022-11-15T08:48:36;3;2;
55459;PMS5003;41326;45.302;-122.946;2022-11-15T08:51:06;3;2;
55459;PMS5003;41326;45.302;-122.946;2022-11-15T08:53:36;3;3;
55459;PMS5003;41326;45.302;-122.946;2022-11-15T08:56:07;7;4;
55459;PMS5003;41326;45.302;-122.946;2022-11-15T08:58:37;1;1;
55459;PMS5003;41326;45.302;-122.946;2022-11-15T09:03:39;2;2;
55459;PMS5003;41326;45.302;-122.946;2022-11-15T09:06:08;2;2;
55459;PMS5003;41326;45.302;-122.946;2022-11-15T09:08:39;4;4;
55459;PMS5003;41326;45.302;-122.946;2022-11-15T09:11:09;3;3;
55459;PMS5003;41326;45.302;-122.946;2022-11-15T09:13:39;5;4;
55459;PMS5003;41326;45.302;-122.946;2022-11-15T09:16:10;3;2;
55459;PMS5003;41326;45.302;-122.946;2022-11-15T09:18:40;4;4;
55459;PMS5003;41326;45.302;-122.946;2022-11-15T09:21:10;5;5;
55459;PMS5003;41326;45.302;-122.946;2022-11-15T09:23:40;5;5;
55459;PMS5003;41326;45.302;-122.946;2022-11-15T09:26:11;3;2;
55459;PMS5003;41326;45.302;-122.946;2022-11-15T09:28:41;4;4;
55459;PMS5003;41326;45.302;-122.946;2022-11-15T09:31:11;9;6;
55459;PMS5003;41326;45.302;-122.946;2022-11-15T09:33:43;5;3;
55459;PMS5003;41326;45.302;-122.946;2022-11-15T09:36:12;5;4;
55459;PMS5003;41326;45.302;-122.946;2022-11-15T09:38:43;4;4;
55459;PMS5003;41326;45.302;-122.946;2022-11-15T09:41:20;4;4;
55459;PMS5003;41326;45.302;-122.946;2022-11-15T09:43:45;5;5;
55459;PMS5003;41326;45.302;-122.946;2022-11-15T09:46:15;5;4;
55459;PMS5003;41326;45.302;-122.946;2022-11-15T09:48:48;4;3;
55459;PMS5003;41326;45.302;-122.946;2022-11-15T09:51:18;5;3;
55459;PMS5003;41326;45.302;-122.946;2022-11-15T09:53:47;3;3;
55459;PMS5003;41326;45.302;-122.946;2022-11-15T09:56:16;3;3;
55459;PMS5003;41326;45.302;-122.946;2022-11-15T09:58:46;4;4;
55459;PMS5003;41326;45.302;-122.946;2022-11-15T10:01:16;4;4;
55459;PMS5003;41326;45.302;-122.946;2022-11-15T10:03:45;7;4;
55459;PMS5003;41326;45.302;-122.946;2022-11-15T10:06:18;3;3;
55459;PMS5003;41326;45.302;-122.946;2022-11-15T10:08:49;4;4;
55459;PMS5003;41326;45.302;-122.946;2022-11-15T10:11:17;4;4;
55459;PMS5003;41326;45.302;-122.946;2022-11-15T10:13:47;5;4;
55459;PMS5003;41326;45.302;-122.946;2022-11-15T10:16:24;5;4;
55459;PMS5003;41326;45.302;-122.946;2022-11-15T10:18:50;5;3;
55459;PMS5003;41326;45.302;-122.946;2022-11-15T10:21:19;8;5;
55459;PMS5003;41326;45.302;-122.946;2022-11-15T10:23:48;4;4;
55459;PMS5003;41326;45.302;-122.946;2022-11-15T10:26:19;7;5;
55459;PMS5003;41326;45.302;-122.946;2022-11-15T10:28:50;4;4;
55459;PMS5003;41326;45.302;-122.946;2022-11-15T10:31:22;4;4;
55459;PMS5003;41326;45.302;-122.946;2022-11-15T10:33:50;3;3;
55459;PMS5003;41326;45.302;-122.946;2022-11-15T10:36:22;5;3;
55459;PMS5003;41326;45.302;-122.946;2022-11-15T10:38:51;4;4;
55459;PMS5003;41326;45.302;-122.946;2022-11-15T10:41:21;6;4;
55459;PMS5003;41326;45.302;-122.946;2022-11-15T10:46:22;6;6;
55459;PMS5003;41326;45.302;-122.946;2022-11-15T10:48:52;9;5;
55459;PMS5003;41326;45.302;-122.946;2022-11-15T10:52:30;11;6;
55459;PMS5003;41326;45.302;-122.946;2022-11-15T10:55:02;5;5;
55459;PMS5003;41326;45.302;-122.946;2022-11-15T10:57:32;8;5;
55459;PMS5003;41326;45.302;-122.946;2022-11-15T11:00:04;3;3;
55459;PMS5003;41326;45.302;-122.946;2022-11-15T11:02:33;7;5;
55459;PMS5003;41326;45.302;-122.946;2022-11-15T11:05:03;2;2;
55459;PMS5003;41326;45.302;-122.946;2022-11-15T11:07:34;3;3;
55459;PMS5003;41326;45.302;-122.946;2022-11-15T11:12:40;4;4;
55459;PMS5003;41326;45.302;-122.946;2022-11-15T11:15:11;5;5;
55459;PMS5003;41326;45.302;-122.946;2022-11-15T11:17:45;4;4;
55459;PMS5003;41326;45.302;-122.946;2022-11-15T11:20:14;6;4;
55459;PMS5003;41326;45.302;-122.946;2022-11-15T11:22:46;3;3;
55459;PMS5003;41326;45.302;-122.946;2022-11-15T11:25:17;3;3;
55459;PMS5003;41326;45.302;-122.946;2022-11-15T11:27:46;4;4;
55459;PMS5003;41326;45.302;-122.946;2022-11-15T11:30:14;4;4;
55459;PMS5003;41326;45.302;-122.946;2022-11-15T11:32:53;8;4;
55459;PMS5003;41326;45.302;-122.946;2022-11-15T11:35:17;4;4;
55459;PMS5003;41326;45.302;-122.946;2022-11-15T11:37:46;4;3;
55459;PMS5003;41326;45.302;-122.946;2022-11-15T11:40:19;5;2;
55459;PMS5003;41326;45.302;-122.946;2022-11-15T11:42:47;3;3;
55459;PMS5003;41326;45.302;-122.946;2022-11-15T11:45:18;4;2;
55459;PMS5003;41326;45.302;-122.946;2022-11-15T11:47:47;3;3;
55459;PMS5003;41326;45.302;-122.946;2022-11-15T11:50:17;4;4;
55459;PMS5003;41326;45.302;-122.946;2022-11-15T11:52:52;6;5;
55459;PMS5003;41326;45.302;-122.946;2022-11-15T11:55:19;4;2;
55459;PMS5003;41326;45.302;-122.946;2022-11-15T11:57:49;3;3;
55459;PMS5003;41326;45.302;-122.946;2022-11-15T12:00:19;1;1;
55459;PMS5003;41326;45.302;-122.946;2022-11-15T12:02:55;5;4;
55459;PMS5003;41326;45.302;-122.946;2022-11-15T12:05:20;6;3;
55459;PMS5003;41326;45.302;-122.946;2022-11-15T12:07:49;4;2;
55459;PMS5003;41326;45.302;-122.946;2022-11-15T12:10:21;3;3;
55459;PMS5003;41326;45.302;-122.946;2022-11-15T12:12:52;4;4;
55459;PMS5003;41326;45.302;-122.946;2022-11-15T12:15:20;2;2;
55459;PMS5003;41326;45.302;-122.946;2022-11-15T12:17:50;4;3;
55459;PMS5003;41326;45.302;-122.946;2022-11-15T12:20:21;6;4;
55459;PMS5003;41326;45.302;-122.946;2022-11-15T12:22:53;2;2;
55459;PMS5003;41326;45.302;-122.946;2022-11-15T12:25:22;3;2;
55459;PMS5003;41326;45.302;-122.946;2022-11-15T12:27:53;4;4;
55459;PMS5003;41326;45.302;-122.946;2022-11-15T12:30:22;4;3;
55459;PMS5003;41326;45.302;-122.946;2022-11-15T12:32:54;4;4;
55459;PMS5003;41326;45.302;-122.946;2022-11-15T12:35:25;1;1;
55459;PMS5003;41326;45.302;-122.946;2022-11-15T12:37:53;4;3;
55459;PMS5003;41326;45.302;-122.946;2022-11-15T12:42:59;4;2;
55459;PMS5003;41326;45.302;-122.946;2022-11-15T12:45:26;4;2;
55459;PMS5003;41326;45.302;-122.946;2022-11-15T12:47:57;4;4;
55459;PMS5003;41326;45.302;-122.946;2022-11-15T12:57:56;4;4;
55459;PMS5003;41326;45.302;-122.946;2022-11-15T13:07:58;3;3;
55459;PMS5003;41326;45.302;-122.946;2022-11-15T13:10:30;4;4;
55459;PMS5003;41326;45.302;-122.946;2022-11-15T13:12:59;5;4;
55459;PMS5003;41326;45.302;-122.946;2022-11-15T13:18:18;3;3;
55459;PMS5003;41326;45.302;-122.946;2022-11-15T13:20:30;6;4;
55459;PMS5003;41326;45.302;-122.946;2022-11-15T13:23:01;2;2;
55459;PMS5003;41326;45.302;-122.946;2022-11-15T13:28:00;3;3;
55459;PMS5003;41326;45.302;-122.946;2022-11-15T13:30:30;4;2;
55459;PMS5003;41326;45.302;-122.946;2022-11-15T13:33:07;3;2;
55459;PMS5003;41326;45.302;-122.946;2022-11-15T13:35:31;3;2;
55459;PMS5003;41326;45.302;-122.946;2022-11-15T13:38:03;4;3;
55459;PMS5003;41326;45.302;-122.946;2022-11-15T13:40:35;7;5;
55459;PMS5003;41326;45.302;-122.946;2022-11-15T13:45:32;4;3;
55459;PMS5003;41326;45.302;-122.946;2022-11-15T13:48:03;3;3;
55459;PMS5003;41326;45.302;-122.946;2022-11-15T13:50:33;3;3;
55459;PMS5003;41326;45.302;-122.946;2022-11-15T13:53:04;6;3;
55459;PMS5003;41326;45.302;-122.946;2022-11-15T13:55:34;5;4;
55459;PMS5003;41326;45.302;-122.946;2022-11-15T13:58:05;3;3;
55459;PMS5003;41326;45.302;-122.946;2022-11-15T14:00:36;7;5;
55459;PMS5003;41326;45.302;-122.946;2022-11-15T14:03:06;6;4;
55459;PMS5003;41326;45.302;-122.946;2022-11-15T14:05:35;5;5;
55459;PMS5003;41326;45.302;-122.946;2022-11-15T14:10:36;4;3;
55459;PMS5003;41326;45.302;-122.946;2022-11-15T14:13:10;3;2;
55459;PMS5003;41326;45.302;-122.946;2022-11-15T14:15:37;3;3;
55459;PMS5003;41326;45.302;-122.946;2022-11-15T14:20:38;2;2;
55459;PMS5003;41326;45.302;-122.946;2022-11-15T14:25:38;3;3;
55459;PMS5003;41326;45.302;-122.946;2022-11-15T14:28:12;6;5;
55459;PMS5003;41326;45.302;-122.946;2022-11-15T14:30:39;3;2;
55459;PMS5003;41326;45.302;-122.946;2022-11-15T14:35:39;6;5;
55459;PMS5003;41326;45.302;-122.946;2022-11-15T14:38:10;4;2;
55459;PMS5003;41326;45.302;-122.946;2022-11-15T14:40:40;6;4;
55459;PMS5003;41326;45.302;-122.946;2022-11-15T14:43:11;5;4;
55459;PMS5003;41326;45.302;-122.946;2022-11-15T14:45:41;4;4;
55459;PMS5003;41326;45.302;-122.946;2022-11-15T14:48:11;4;4;
55459;PMS5003;41326;45.302;-122.946;2022-11-15T14:50:41;3;3;
55459;PMS5003;41326;45.302;-122.946;2022-11-15T14:53:12;4;3;
55459;PMS5003;41326;45.302;-122.946;2022-11-15T14:55:42;3;3;
55459;PMS5003;41326;45.302;-122.946;2022-11-15T14:58:12;4;3;
55459;PMS5003;41326;45.302;-122.946;2022-11-15T15:00:42;2;2;
55459;PMS5003;41326;45.302;-122.946;2022-11-15T15:03:13;4;4;
55459;PMS5003;41326;45.302;-122.946;2022-11-15T15:05:43;2;2;
55459;PMS5003;41326;45.302;-122.946;2022-11-15T15:08:14;2;2;
55459;PMS5003;41326;45.302;-122.946;2022-11-15T15:10:45;8;6;
55459;PMS5003;41326;45.302;-122.946;2022-11-15T15:13:16;6;4;
55459;PMS5003;41326;45.302;-122.946;2022-11-15T15:15:45;4;2;
55459;PMS5003;41326;45.302;-122.946;2022-11-15T15:18:15;2;2;
55459;PMS5003;41326;45.302;-122.946;2022-11-15T15:20:47;2;2;
55459;PMS5003;41326;45.302;-122.946;2022-11-15T15:23:16;3;3;
55459;PMS5003;41326;45.302;-122.946;2022-11-15T15:25:46;3;2;
55459;PMS5003;41326;45.302;-122.946;2022-11-15T15:28:17;4;2;
55459;PMS5003;41326;45.302;-122.946;2022-11-15T15:30:47;2;2;
55459;PMS5003;41326;45.302;-122.946;2022-11-15T15:33:17;3;2;
55459;PMS5003;41326;45.302;-122.946;2022-11-15T15:35:47;0;0;
55459;PMS5003;41326;45.302;-122.946;2022-11-15T15:38:18;2;2;
55459;PMS5003;41326;45.302;-122.946;2022-11-15T15:40:48;2;2;
55459;PMS5003;41326;45.302;-122.946;2022-11-15T15:43:19;3;3;
55459;PMS5003;41326;45.302;-122.946;2022-11-15T15:45:50;4;3;
55459;PMS5003;41326;45.302;-122.946;2022-11-15T15:48:20;5;2;
55459;PMS5003;41326;45.302;-122.946;2022-11-15T15:50:50;2;2;
55459;PMS5003;41326;45.302;-122.946;2022-11-15T15:53:21;5;4;
55459;PMS5003;41326;45.302;-122.946;2022-11-15T15:55:51;4;3;
55459;PMS5003;41326;45.302;-122.946;2022-11-15T15:58:22;4;4;
55459;PMS5003;41326;45.302;-122.946;2022-11-15T16:00:52;5;3;
55459;PMS5003;41326;45.302;-122.946;2022-11-15T16:03:22;1;1;
55459;PMS5003;41326;45.302;-122.946;2022-11-15T16:05:53;4;3;
55459;PMS5003;41326;45.302;-122.946;2022-11-15T16:08:23;3;3;
55459;PMS5003;41326;45.302;-122.946;2022-11-15T16:10:54;3;3;
55459;PMS5003;41326;45.302;-122.946;2022-11-15T16:13:24;3;1;
55459;PMS5003;41326;45.302;-122.946;2022-11-15T16:15:55;2;2;
55459;PMS5003;41326;45.302;-122.946;2022-11-15T16:18:25;2;2;
55459;PMS5003;41326;45.302;-122.946;2022-11-15T16:20:56;8;5;
55459;PMS5003;41326;45.302;-122.946;2022-11-15T16:23:26;3;3;
55459;PMS5003;41326;45.302;-122.946;2022-11-15T16:25:56;3;2;
55459;PMS5003;41326;45.302;-122.946;2022-11-15T16:28:27;4;2;
55459;PMS5003;41326;45.302;-122.946;2022-11-15T16:31:01;8;4;
55459;PMS5003;41326;45.302;-122.946;2022-11-15T16:33:27;3;3;
55459;PMS5003;41326;45.302;-122.946;2022-11-15T16:35:57;2;2;
55459;PMS5003;41326;45.302;-122.946;2022-11-15T16:38:28;3;3;
55459;PMS5003;41326;45.302;-122.946;2022-11-15T16:40:58;2;2;
55459;PMS5003;41326;45.302;-122.946;2022-11-15T16:43:29;4;3;
55459;PMS5003;41326;45.302;-122.946;2022-11-15T16:46:00;3;2;
55459;PMS5003;41326;45.302;-122.946;2022-11-15T16:48:30;4;3;
55459;PMS5003;41326;45.302;-122.946;2022-11-15T16:51:00;2;2;
55459;PMS5003;41326;45.302;-122.946;2022-11-15T16:53:30;3;1;
55459;PMS5003;41326;45.302;-122.946;2022-11-15T16:56:00;3;2;
55459;PMS5003;41326;45.302;-122.946;2022-11-15T16:58:31;1;1;
55459;PMS5003;41326;45.302;-122.946;2022-11-15T17:01:01;1;1;
55459;PMS5003;41326;45.302;-122.946;2022-11-15T17:03:31;2;2;
55459;PMS5003;41326;45.302;-122.946;2022-11-15T17:06:02;1;1;
55459;PMS5003;41326;45.302;-122.946;2022-11-15T17:08:32;1;1;
55459;PMS5003;41326;45.302;-122.946;2022-11-15T17:11:04;2;2;
55459;PMS5003;41326;45.302;-122.946;2022-11-15T17:13:33;1;1;
55459;PMS5003;41326;45.302;-122.946;2022-11-15T17:16:04;2;1;